Time;durP1;ratioP1;P1;durP2;ratioP2;P2;SDS_P1;SDS_P2;PMS_P1;PMS_P2;Temp;Humidity;BMP_temperature;BMP_pressure;BME280_temperature;BME280_humidity;BME280_pressure;Samples;Min_cycle;Max_cycle;Signal;HPM_P1;HPM_P2
2020/12/01 00:01:57;;;;;;;55.47;24.90;;;;;;;-8.21;100.00;96418.66;5070413;28;20284;-61
2020/12/01 00:04:24;;;;;;;57.73;24.40;;;;;;;-8.21;100.00;96421.16;5070181;28;20193;-60
2020/12/01 00:06:51;;;;;;;61.97;24.80;;;;;;;-8.17;99.72;96422.47;5070304;28;20189;-61
2020/12/01 00:09:18;;;;;;;50.70;23.37;;;;;;;-8.27;99.09;96421.81;5070361;28;20668;-62
2020/12/01 00:11:45;;;;;;;67.17;25.87;;;;;;;-8.27;98.98;96421.81;5070250;28;20195;-61
2020/12/01 00:14:12;;;;;;;68.73;27.10;;;;;;;-8.38;98.51;96415.34;5070242;28;20552;-61
2020/12/01 00:16:38;;;;;;;67.60;25.90;;;;;;;-8.43;97.18;96421.78;5070240;28;20218;-62
2020/12/01 00:19:05;;;;;;;64.63;25.87;;;;;;;-8.62;95.97;96422.03;5070233;28;20225;-62
2020/12/01 00:21:32;;;;;;;82.37;32.47;;;;;;;-8.92;93.63;96425.81;5070076;28;20284;-62
2020/12/01 00:24:00;;;;;;;72.27;30.50;;;;;;;-8.83;93.65;96422.41;5070174;28;20203;-61
2020/12/01 00:26:27;;;;;;;75.20;31.50;;;;;;;-8.81;92.60;96428.84;5070132;28;20224;-61
2020/12/01 00:28:54;;;;;;;90.77;34.27;;;;;;;-8.89;92.47;96425.50;5070172;28;20192;-61
2020/12/01 00:31:21;;;;;;;84.73;32.50;;;;;;;-8.95;92.73;96431.94;5070043;28;20193;-60
2020/12/01 00:33:48;;;;;;;83.03;31.33;;;;;;;-9.06;93.04;96428.91;5069727;28;20206;-61
2020/12/01 00:36:15;;;;;;;83.13;31.33;;;;;;;-8.99;93.48;96430.66;5070045;28;20197;-61
2020/12/01 00:38:43;;;;;;;81.63;31.73;;;;;;;-9.03;94.01;96426.06;5069705;28;20239;-61
2020/12/01 00:41:13;;;;;;;97.70;37.80;;;;;;;-9.23;94.55;96428.78;5070050;28;20200;-59
2020/12/01 00:43:40;;;;;;;77.37;32.30;;;;;;;-9.20;95.69;96428.47;5069852;28;20188;-61
2020/12/01 00:46:07;;;;;;;89.30;31.60;;;;;;;-9.38;95.72;96429.47;5069917;28;20195;-61
2020/12/01 00:48:34;;;;;;;83.03;30.83;;;;;;;-9.35;94.92;96429.94;5070329;28;20220;-61
2020/12/01 00:51:01;;;;;;;76.43;29.00;;;;;;;-9.41;96.15;96428.00;5069849;28;20564;-60
2020/12/01 00:53:27;;;;;;;75.80;30.13;;;;;;;-9.35;95.87;96426.66;5069861;28;20283;-61
2020/12/01 00:55:54;;;;;;;99.20;40.50;;;;;;;-9.49;97.46;96417.13;5070027;28;20196;-59
2020/12/01 00:58:22;;;;;;;78.40;29.70;;;;;;;-9.40;98.30;96421.25;5069841;28;20231;-61
2020/12/01 01:00:49;;;;;;;69.43;27.33;;;;;;;-9.47;98.54;96420.28;5070048;28;20200;-60
2020/12/01 01:03:16;;;;;;;65.87;25.90;;;;;;;-9.55;98.09;96412.66;5069775;28;20200;-59
2020/12/01 01:05:43;;;;;;;66.40;27.07;;;;;;;-9.46;97.61;96412.56;5069963;28;20196;-61
2020/12/01 01:08:10;;;;;;;68.87;28.77;;;;;;;-9.49;98.13;96417.91;5070106;28;20194;-61
2020/12/01 01:10:37;;;;;;;70.33;28.53;;;;;;;-9.41;98.13;96409.66;5069686;28;20197;-61
2020/12/01 01:13:04;;;;;;;75.97;30.40;;;;;;;-9.22;99.37;96404.41;5069984;28;20211;-60
2020/12/01 01:15:33;;;;;;;66.20;27.23;;;;;;;-9.09;99.29;96404.00;5069565;28;20227;-61
2020/12/01 01:18:01;;;;;;;69.07;26.90;;;;;;;-9.08;99.07;96398.03;5069616;28;20193;-59
2020/12/01 01:20:29;;;;;;;61.43;26.57;;;;;;;-8.94;99.29;96403.31;5069698;28;20189;-61
2020/12/01 01:22:55;;;;;;;67.67;28.60;;;;;;;-8.85;99.41;96414.19;5069507;28;20196;-61
2020/12/01 01:25:23;;;;;;;66.67;29.20;;;;;;;-8.66;98.22;96395.53;5069524;28;20275;-61
2020/12/01 01:27:50;;;;;;;81.90;33.43;;;;;;;-8.63;98.47;96391.00;5069717;28;20213;-60
2020/12/01 01:30:19;;;;;;;84.67;31.90;;;;;;;-8.65;98.12;96392.88;5069673;28;20251;-61
2020/12/01 01:32:47;;;;;;;79.30;32.30;;;;;;;-8.68;97.93;96393.19;5069825;28;20223;-61
2020/12/01 01:35:14;;;;;;;71.90;30.23;;;;;;;-8.62;97.43;96392.59;5069607;28;20285;-61
2020/12/01 01:37:41;;;;;;;78.30;31.17;;;;;;;-8.59;97.67;96384.72;5069262;28;20557;-61
2020/12/01 01:40:15;;;;;;;75.03;29.70;;;;;;;-8.66;96.24;96395.53;5069240;28;20263;-61
2020/12/01 01:42:42;;;;;;;71.03;28.77;;;;;;;-8.47;96.61;96381.00;5069460;28;20189;-61
2020/12/01 01:45:11;;;;;;;64.60;27.30;;;;;;;-8.37;96.27;96390.94;5071182;28;20224;-61
2020/12/01 01:47:38;;;;;;;56.80;23.07;;;;;;;-8.42;95.19;96393.13;5073003;28;20672;-61
2020/12/01 01:50:14;;;;;;;52.97;23.53;;;;;;;-8.83;93.16;96400.53;5072931;28;20201;-62
2020/12/01 01:52:43;;;;;;;57.20;24.17;;;;;;;-8.81;92.64;96398.63;5073003;28;20200;-60
2020/12/01 01:55:13;;;;;;;69.27;26.60;;;;;;;-8.79;92.01;96403.53;5072946;28;20210;-61
2020/12/01 01:57:43;;;;;;;62.57;27.07;;;;;;;-8.97;91.70;96402.81;5073307;28;20193;-62
2020/12/01 02:00:25;;;;;;;94.37;35.90;;;;;;;-8.84;92.91;96400.66;5073023;28;20224;-62
2020/12/01 02:02:53;;;;;;;135.07;44.47;;;;;;;-8.69;93.22;96386.56;5072697;28;20227;-60
2020/12/01 02:05:20;;;;;;;123.80;45.87;;;;;;;-8.66;94.37;96385.47;5072618;28;20200;-61
2020/12/01 02:07:47;;;;;;;122.80;44.27;;;;;;;-8.61;95.10;96391.63;5072569;28;20211;-61
2020/12/01 02:10:14;;;;;;;131.53;47.47;;;;;;;-8.48;95.34;96383.66;5072640;28;20571;-61
2020/12/01 02:12:44;;;;;;;132.57;47.40;;;;;;;-8.36;95.27;96392.50;5072585;28;20196;-60
2020/12/01 02:15:12;;;;;;;97.33;36.87;;;;;;;-8.31;93.55;96382.75;5072687;28;20196;-61
2020/12/01 02:17:39;;;;;;;100.10;39.87;;;;;;;-8.42;93.63;96388.09;5072668;28;20272;-61
2020/12/01 02:20:11;;;;;;;149.87;42.37;;;;;;;-8.64;93.29;96388.63;5072430;28;20232;-60
2020/12/01 02:22:41;;;;;;;117.27;42.70;;;;;;;-8.66;93.31;96393.81;5072491;28;20239;-61
2020/12/01 02:25:08;;;;;;;173.00;44.03;;;;;;;-8.81;94.18;96393.59;5072295;28;20215;-61
2020/12/01 02:27:36;;;;;;;146.93;47.77;;;;;;;-8.65;94.67;96397.91;5072052;28;20227;-61
2020/12/01 02:30:04;;;;;;;144.97;47.13;;;;;;;-8.71;95.24;96390.97;5072447;28;20197;-61
2020/12/01 02:32:30;;;;;;;208.97;51.23;;;;;;;-8.73;95.87;96386.09;5072351;28;20578;-61
2020/12/01 02:35:00;;;;;;;162.80;48.30;;;;;;;-8.54;96.49;96384.25;5072024;28;20211;-62
2020/12/01 02:37:29;;;;;;;145.30;46.50;;;;;;;-8.41;97.13;96389.63;5071909;28;20282;-61
2020/12/01 02:39:57;;;;;;;200.77;50.80;;;;;;;-8.32;97.44;96391.25;5072002;28;20247;-61
2020/12/01 02:42:27;;;;;;;182.67;50.83;;;;;;;-8.27;97.82;96386.53;5071924;28;20570;-60
2020/12/01 02:44:57;;;;;;;137.53;46.03;;;;;;;-8.24;98.80;96385.41;5072065;28;20773;-61
2020/12/01 02:47:24;;;;;;;135.60;44.03;;;;;;;-8.11;99.25;96391.56;5072047;28;20204;-61
2020/12/01 02:49:51;;;;;;;163.57;46.53;;;;;;;-8.23;98.92;96379.44;5071840;28;20675;-62
2020/12/01 02:52:20;;;;;;;174.73;48.83;;;;;;;-8.11;99.38;96386.53;5072057;28;20254;-61
2020/12/01 02:54:47;;;;;;;194.83;51.70;;;;;;;-8.24;98.48;96376.13;5071689;28;20203;-61
2020/12/01 02:57:14;;;;;;;158.60;48.30;;;;;;;-8.34;98.58;96376.28;5071390;28;20200;-61
2020/12/01 02:59:40;;;;;;;233.10;49.33;;;;;;;-8.26;98.03;96375.47;5071655;28;20231;-61
2020/12/01 03:02:08;;;;;;;132.50;45.40;;;;;;;-8.18;98.31;96380.53;5071728;28;20532;-60
2020/12/01 03:04:35;;;;;;;140.53;42.80;;;;;;;-7.99;98.20;96367.66;5071567;28;20253;-61
2020/12/01 03:07:02;;;;;;;159.47;42.33;;;;;;;-8.03;98.36;96361.34;5071658;28;20197;-61
2020/12/01 03:09:28;;;;;;;126.70;40.53;;;;;;;-8.05;99.05;96363.22;5071210;28;20200;-61
2020/12/01 03:11:55;;;;;;;147.83;42.83;;;;;;;-7.92;99.45;96368.56;5071380;28;20206;-60
2020/12/01 03:14:23;;;;;;;147.93;46.97;;;;;;;-7.87;100.00;96376.47;5071157;28;20207;-61
2020/12/01 03:16:50;;;;;;;131.33;42.30;;;;;;;-7.80;100.00;96373.31;5071384;28;20212;-61
2020/12/01 03:19:19;;;;;;;134.47;42.17;;;;;;;-7.77;100.00;96373.03;5071198;28;20216;-61
2020/12/01 03:21:46;;;;;;;125.93;41.07;;;;;;;-7.82;100.00;96375.22;5071211;28;20196;-61
2020/12/01 03:24:13;;;;;;;131.07;43.43;;;;;;;-7.87;100.00;96375.69;5071077;28;20208;-60
2020/12/01 03:26:40;;;;;;;154.97;43.17;;;;;;;-7.86;100.00;96374.72;5071265;28;20221;-61
2020/12/01 03:29:07;;;;;;;126.47;41.63;;;;;;;-7.85;99.75;96377.09;5071213;28;20254;-61
2020/12/01 03:31:33;;;;;;;139.83;43.93;;;;;;;-7.75;99.84;96378.69;5071159;28;20202;-60
2020/12/01 03:34:00;;;;;;;131.03;43.83;;;;;;;-7.67;99.79;96378.69;5070941;28;20200;-60
2020/12/01 03:36:28;;;;;;;163.57;47.90;;;;;;;-7.66;100.00;96380.25;5070976;28;20239;-60
2020/12/01 03:38:55;;;;;;;129.70;41.67;;;;;;;-7.58;99.99;96377.75;5070539;28;20588;-61
2020/12/01 03:41:22;;;;;;;162.63;44.93;;;;;;;-7.65;100.00;96372.53;5070790;28;20199;-61
2020/12/01 03:43:49;;;;;;;186.50;50.53;;;;;;;-7.78;99.62;96381.53;5070634;28;20201;-61
2020/12/01 03:46:16;;;;;;;139.13;40.37;;;;;;;-7.98;100.00;96376.00;5070654;28;20200;-61
2020/12/01 03:48:45;;;;;;;115.23;38.37;;;;;;;-8.23;100.00;96387.78;5070675;28;20203;-62
2020/12/01 03:51:13;;;;;;;134.77;38.17;;;;;;;-8.26;100.00;96375.47;5070519;28;20285;-62
2020/12/01 03:53:41;;;;;;;123.60;37.83;;;;;;;-8.14;100.00;96384.31;5071077;28;20231;-61
2020/12/01 03:56:08;;;;;;;121.10;37.07;;;;;;;-8.11;100.00;96389.03;5070439;28;20685;-61
2020/12/01 03:58:35;;;;;;;143.33;39.23;;;;;;;-7.99;100.00;96377.72;5070421;28;20192;-62
2020/12/01 04:01:02;;;;;;;130.97;41.27;;;;;;;-8.02;100.00;96380.53;5070852;28;20295;-61
2020/12/01 04:03:28;;;;;;;162.70;41.47;;;;;;;-7.94;100.00;96383.09;5070381;28;20314;-61
2020/12/01 04:05:55;;;;;;;216.77;42.77;;;;;;;-7.78;100.00;96381.53;5070425;28;20204;-61
2020/12/01 04:08:22;;;;;;;161.67;41.10;;;;;;;-7.74;100.00;96385.31;5069999;28;20192;-61
2020/12/01 04:10:50;;;;;;;231.90;47.00;;;;;;;-7.69;100.00;96390.66;5070285;28;20201;-61
2020/12/01 04:13:16;;;;;;;200.97;43.37;;;;;;;-7.52;100.00;96393.00;5070278;28;20201;-61
2020/12/01 04:15:43;;;;;;;176.43;42.73;;;;;;;-7.40;100.00;96396.00;5070211;28;20193;-61
2020/12/01 04:18:10;;;;;;;124.70;38.87;;;;;;;-7.38;100.00;96395.84;5070130;28;20203;-61
2020/12/01 04:20:37;;;;;;;171.77;39.30;;;;;;;-7.41;100.00;96394.44;5070258;28;20678;-61
2020/12/01 04:23:04;;;;;;;134.33;39.80;;;;;;;-7.45;100.00;96395.69;5070196;28;20704;-61
2020/12/01 04:25:31;;;;;;;177.73;38.63;;;;;;;-7.36;100.00;96393.94;5070515;28;20196;-62
2020/12/01 04:27:58;;;;;;;137.67;38.17;;;;;;;-7.33;100.00;96401.22;5070418;28;20224;-61
2020/12/01 04:30:26;;;;;;;170.40;37.50;;;;;;;-7.37;100.00;96402.50;5070134;28;20237;-62
2020/12/01 04:32:54;;;;;;;156.87;38.80;;;;;;;-7.52;100.00;96395.53;5069919;28;20233;-61
2020/12/01 04:35:23;;;;;;;221.83;47.07;;;;;;;-7.33;100.00;96391.13;5070032;28;20271;-60
2020/12/01 04:37:51;;;;;;;161.43;39.50;;;;;;;-7.37;100.00;96395.69;5070009;28;20229;-61
2020/12/01 04:40:21;;;;;;;137.73;36.13;;;;;;;-7.32;100.00;96393.47;5069876;28;20240;-61
2020/12/01 04:42:53;;;;;;;175.80;37.17;;;;;;;-7.33;100.00;96383.53;5070087;28;20190;-60
2020/12/01 04:45:21;;;;;;;179.47;37.27;;;;;;;-7.41;100.00;96390.16;5069799;28;20200;-61
2020/12/01 04:47:55;;;;;;;173.07;38.23;;;;;;;-7.53;100.00;96380.56;5070057;28;20631;-62
2020/12/01 04:50:31;;;;;;;130.63;35.73;;;;;;;-7.58;100.00;96378.53;5070033;28;20215;-61
2020/12/01 04:53:33;;;;;;;198.07;38.63;;;;;;;-7.43;100.00;96391.28;5069955;28;20201;-61
2020/12/01 04:56:17;;;;;;;155.07;35.20;;;;;;;-7.33;100.00;96379.28;5070183;28;20657;-61
2020/12/01 04:59:24;;;;;;;173.20;36.50;;;;;;;-7.31;100.00;96374.06;5069731;28;20236;-61
2020/12/01 05:02:25;;;;;;;168.17;35.60;;;;;;;-7.30;100.00;96381.47;5064285;28;20199;-61
2020/12/01 05:05:09;;;;;;;170.23;37.23;;;;;;;-7.19;100.00;96380.38;5069977;28;20199;-61
2020/12/01 05:07:54;;;;;;;165.23;35.53;;;;;;;-7.28;100.00;96373.75;5069779;28;20208;-60
2020/12/01 05:10:21;;;;;;;154.00;38.07;;;;;;;-7.29;100.00;96372.19;5069688;28;20602;-61
2020/12/01 05:12:57;;;;;;;150.27;38.23;;;;;;;-7.23;100.00;96377.38;5069655;28;20200;-60
2020/12/01 05:15:28;;;;;;;182.83;39.70;;;;;;;-7.20;100.00;96379.56;5069626;28;20700;-61
2020/12/01 05:18:12;;;;;;;175.73;36.37;;;;;;;-7.17;100.00;96381.00;5069720;28;20287;-62
2020/12/01 05:20:46;;;;;;;123.23;36.87;;;;;;;-7.24;100.00;96375.00;5071771;28;20225;-61
2020/12/01 05:23:15;;;;;;;151.00;39.53;;;;;;;-7.18;100.00;96379.41;5073406;28;20298;-61
2020/12/01 05:25:42;;;;;;;158.90;40.03;;;;;;;-7.06;100.00;96370.53;5073465;28;20196;-61
2020/12/01 05:28:11;;;;;;;142.40;36.70;;;;;;;-6.98;100.00;96376.38;5073198;28;20679;-61
2020/12/01 05:30:39;;;;;;;119.73;34.83;;;;;;;-7.00;100.00;96373.22;5073279;28;20198;-63
2020/12/01 05:33:19;;;;;;;148.10;36.43;;;;;;;-6.95;100.00;96382.81;5073128;28;20615;-61
2020/12/01 05:35:59;;;;;;;156.27;34.33;;;;;;;-6.86;100.00;96386.91;5073183;28;20193;-61
2020/12/01 05:38:27;;;;;;;142.40;33.63;;;;;;;-6.94;100.00;96376.03;5073263;28;20220;-61
2020/12/01 05:40:56;;;;;;;115.40;31.40;;;;;;;-6.85;100.00;96370.78;5072843;28;20319;-60
2020/12/01 05:43:31;;;;;;;170.30;33.93;;;;;;;-6.97;100.00;96382.97;5073323;28;20198;-61
2020/12/01 05:46:17;;;;;;;171.67;34.87;;;;;;;-7.02;100.00;96390.25;5072928;28;20205;-61
2020/12/01 05:48:53;;;;;;;137.63;34.13;;;;;;;-7.00;100.00;96380.78;5072982;28;20689;-61
2020/12/01 05:51:25;;;;;;;138.53;37.23;;;;;;;-7.01;100.00;96376.69;5072923;28;20194;-61
2020/12/01 05:53:57;;;;;;;132.53;35.13;;;;;;;-6.99;100.00;96382.38;5072816;28;20192;-61
2020/12/01 05:56:25;;;;;;;331.70;80.17;;;;;;;-6.81;100.00;96373.78;5072960;28;20263;-61
2020/12/01 05:59:01;;;;;;;248.33;55.40;;;;;;;-6.70;100.00;96378.47;5072510;28;20688;-61
2020/12/01 06:01:40;;;;;;;119.27;36.57;;;;;;;-6.68;100.00;96376.59;5072699;28;20586;-60
2020/12/01 06:04:11;;;;;;;167.43;38.13;;;;;;;-6.61;100.00;96380.00;5072942;28;20210;-61
2020/12/01 06:06:51;;;;;;;115.33;35.17;;;;;;;-6.56;100.00;96386.16;5072725;28;20214;-62
2020/12/01 06:09:42;;;;;;;164.33;40.97;;;;;;;-6.58;100.00;96393.13;5072466;28;20211;-61
2020/12/01 06:12:17;;;;;;;191.77;49.63;;;;;;;-6.46;100.00;96391.00;5072511;28;20698;-61
2020/12/01 06:14:53;;;;;;;463.10;168.67;;;;;;;-6.35;100.00;96387.31;5072462;28;20577;-61
2020/12/01 06:17:24;;;;;;;182.97;37.60;;;;;;;-6.48;100.00;96389.59;5072409;28;20198;-61
2020/12/01 06:20:01;;;;;;;215.43;37.47;;;;;;;-6.54;100.00;96386.78;5072697;28;20790;-61
2020/12/01 06:23:00;;;;;;;169.00;35.00;;;;;;;-6.60;100.00;96389.97;5072342;28;20235;-61
2020/12/01 06:25:46;;;;;;;119.37;32.50;;;;;;;-6.67;100.00;96393.28;5072440;28;20250;-60
2020/12/01 06:28:46;;;;;;;146.60;32.53;;;;;;;-6.72;100.00;96390.47;5072055;28;20662;-60
2020/12/01 06:31:37;;;;;;;198.70;43.27;;;;;;;-6.59;100.00;96381.44;5068502;28;20207;-61
2020/12/01 06:34:40;;;;;;;118.50;35.43;;;;;;;-6.60;100.00;96389.19;5072454;28;20669;-61
2020/12/01 06:37:24;;;;;;;156.67;34.70;;;;;;;-6.52;100.00;96389.13;5063070;28;20195;-60
2020/12/01 06:40:11;;;;;;;148.53;33.80;;;;;;;-6.29;100.00;96392.50;5071969;28;20320;-60
2020/12/01 06:42:41;;;;;;;102.13;30.30;;;;;;;-6.11;100.00;96394.78;5071941;28;20691;-61
2020/12/01 06:45:26;;;;;;;100.73;29.47;;;;;;;-5.94;100.00;96385.34;5071775;28;20213;-60
2020/12/01 06:48:00;;;;;;;147.83;48.63;;;;;;;-5.87;100.00;96397.13;5071784;28;20193;-61
2020/12/01 06:50:29;;;;;;;109.90;35.30;;;;;;;-6.07;100.00;96396.00;5071801;28;20217;-61
2020/12/01 06:52:59;;;;;;;97.87;30.73;;;;;;;-6.22;100.00;96392.63;5071728;28;20568;-61
2020/12/01 06:55:48;;;;;;;90.93;30.43;;;;;;;-6.06;100.00;96392.53;5071731;28;20197;-60
2020/12/01 06:58:22;;;;;;;92.10;31.47;;;;;;;-5.91;99.75;96400.19;5071570;28;20282;-60
2020/12/01 07:00:49;;;;;;;151.13;43.33;;;;;;;-5.68;99.07;96391.59;5071394;28;20237;-61
2020/12/01 07:03:24;;;;;;;86.10;31.03;;;;;;;-5.67;98.53;96390.63;5071838;28;20199;-60
2020/12/01 07:05:51;;;;;;;103.27;30.33;;;;;;;-5.78;98.58;96391.03;5071511;28;20194;-61
2020/12/01 07:08:27;;;;;;;108.60;31.03;;;;;;;-5.86;97.92;96397.91;5071419;28;20207;-61
2020/12/01 07:11:02;;;;;;;113.57;33.47;;;;;;;-5.92;98.34;96393.53;5071397;28;20708;-62
2020/12/01 07:13:40;;;;;;;84.83;30.17;;;;;;;-5.65;99.37;96390.47;5071397;28;20644;-61
2020/12/01 07:16:18;;;;;;;132.10;34.20;;;;;;;-5.32;97.75;96383.38;5071562;28;20290;-61
2020/12/01 07:18:46;;;;;;;122.57;30.77;;;;;;;-5.48;97.62;96381.78;5071173;28;20201;-61
2020/12/01 07:21:23;;;;;;;111.27;31.00;;;;;;;-5.40;97.19;96379.19;5071051;28;20199;-61
2020/12/01 07:23:59;;;;;;;151.07;32.60;;;;;;;-5.32;95.89;96381.66;5071284;28;20667;-61
2020/12/01 07:26:38;;;;;;;109.60;33.30;;;;;;;-5.16;94.57;96378.16;5071252;28;20219;-62
2020/12/01 07:29:21;;;;;;;147.17;33.83;;;;;;;-5.37;94.61;96375.50;5071090;28;20212;-61
2020/12/01 07:31:48;;;;;;;150.90;34.77;;;;;;;-5.43;95.44;96369.38;5070867;28;20202;-61
2020/12/01 07:34:27;;;;;;;112.03;34.00;;;;;;;-5.43;95.14;96378.75;5070865;28;20233;-61
2020/12/01 07:37:12;;;;;;;115.97;37.03;;;;;;;-5.57;95.64;96376.97;5071006;28;20202;-61
2020/12/01 07:39:53;;;;;;;151.67;41.17;;;;;;;-5.55;96.22;96375.84;5070726;28;20231;-61
2020/12/01 07:42:24;;;;;;;143.57;46.57;;;;;;;-5.40;96.08;96370.81;5069942;28;20198;-61
2020/12/01 07:44:51;;;;;;;139.40;44.40;;;;;;;-5.41;96.11;96356.56;5070851;28;20204;-61
2020/12/01 07:47:20;;;;;;;156.43;45.63;;;;;;;-5.19;95.63;96362.53;5070950;28;20196;-62
2020/12/01 07:49:57;;;;;;;133.13;45.30;;;;;;;-5.20;95.62;96369.34;5070876;28;20196;-61
2020/12/01 07:52:34;;;;;;;130.73;41.40;;;;;;;-5.36;95.26;96369.50;5070715;28;20198;-61
2020/12/01 07:55:06;;;;;;;139.93;37.80;;;;;;;-5.46;94.67;96369.75;5070489;28;20689;-61
2020/12/01 07:57:32;;;;;;;116.77;41.20;;;;;;;-5.22;94.51;96372.06;5070505;28;20282;-62
2020/12/01 08:00:01;;;;;;;126.70;38.83;;;;;;;-5.15;93.37;96367.09;5070423;28;20322;-61
2020/12/01 08:02:31;;;;;;;135.63;41.43;;;;;;;-5.39;94.88;96370.66;5070425;28;20690;-61
2020/12/01 08:05:00;;;;;;;109.60;38.80;;;;;;;-5.37;94.90;96356.03;5070334;28;20195;-60
2020/12/01 08:07:27;;;;;;;112.33;35.07;;;;;;;-5.31;95.53;96360.44;5070306;28;20193;-62
2020/12/01 08:10:02;;;;;;;156.53;34.40;;;;;;;-5.32;95.54;96360.59;5070315;28;20610;-62
2020/12/01 08:12:33;;;;;;;85.97;31.13;;;;;;;-4.89;95.17;96370.00;5070315;28;20281;-62
2020/12/01 08:15:01;;;;;;;109.63;29.80;;;;;;;-4.59;94.46;96368.22;5070303;28;20204;-62
2020/12/01 08:17:32;;;;;;;158.47;40.27;;;;;;;-4.39;93.33;96371.75;5070162;28;20265;-62
2020/12/01 08:19:59;;;;;;;96.23;28.63;;;;;;;-4.43;91.91;96372.28;5070133;28;20232;-62
2020/12/01 08:22:32;;;;;;;85.80;30.53;;;;;;;-4.44;92.12;96371.50;5070312;28;20733;-59
2020/12/01 08:25:04;;;;;;;87.57;30.07;;;;;;;-4.11;91.88;96371.84;5070288;28;20236;-61
2020/12/01 08:27:38;;;;;;;88.77;31.63;;;;;;;-3.81;90.84;96366.66;5069905;28;20216;-61
2020/12/01 08:30:09;;;;;;;247.83;63.43;;;;;;;-3.62;89.00;96369.38;5070090;28;20189;-62
2020/12/01 08:32:40;;;;;;;427.13;99.57;;;;;;;-3.51;88.80;96365.56;5070085;28;20195;-62
2020/12/01 08:35:19;;;;;;;247.33;63.40;;;;;;;-3.41;86.63;96360.16;5070298;28;20221;-62
2020/12/01 08:38:02;;;;;;;110.07;40.17;;;;;;;-3.42;85.99;96361.91;5070134;28;20220;-62
2020/12/01 08:40:38;;;;;;;137.23;44.73;;;;;;;-3.67;85.21;96364.06;5070089;28;20238;-61
2020/12/01 08:43:28;;;;;;;110.00;34.53;;;;;;;-3.86;88.24;96362.13;5070524;28;20207;-62
2020/12/01 08:46:07;;;;;;;93.97;35.03;;;;;;;-3.89;88.31;96357.44;5070094;28;20600;-62
2020/12/01 08:48:42;;;;;;;105.10;35.43;;;;;;;-3.52;88.33;96361.44;5069996;28;20215;-62
2020/12/01 08:51:21;;;;;;;97.83;35.67;;;;;;;-3.80;88.51;96361.41;5069929;28;20192;-62
2020/12/01 08:53:52;;;;;;;110.10;42.67;;;;;;;-3.68;88.62;96354.88;5071373;28;20650;-62
2020/12/01 08:56:29;;;;;;;141.50;47.60;;;;;;;-3.75;88.56;96351.50;5073927;28;20200;-64
2020/12/01 08:59:03;;;;;;;119.07;41.27;;;;;;;-3.27;88.48;96351.66;5073685;28;20283;-62
2020/12/01 09:01:39;;;;;;;345.43;77.60;;;;;;;-3.54;87.11;96354.00;5073928;28;20204;-62
2020/12/01 09:04:17;;;;;;;105.27;39.20;;;;;;;-3.56;88.22;96345.78;5074077;28;20196;-62
2020/12/01 09:06:43;;;;;;;113.57;36.33;;;;;;;-3.58;87.64;96345.19;5073866;28;20624;-62
2020/12/01 09:09:20;;;;;;;109.87;39.97;;;;;;;-3.44;87.65;96337.69;5073808;28;20199;-62
2020/12/01 09:12:15;;;;;;;109.70;37.73;;;;;;;-3.40;88.15;96337.13;5073741;28;20192;-62
2020/12/01 09:17:37;;;;;;;154.50;42.27;;;;;;;-3.53;89.69;96324.31;5070758;28;20193;-62
2020/12/01 09:23:04;;;;;;;124.87;41.27;;;;;;;-3.47;87.43;96316.75;5039457;28;20200;-62
2020/12/01 09:25:31;;;;;;;130.10;42.40;;;;;;;-3.45;87.75;96308.16;5073702;28;20205;-62
2020/12/01 09:27:58;;;;;;;118.40;41.57;;;;;;;-3.27;87.66;96303.38;5073491;28;20238;-62
2020/12/01 09:30:34;;;;;;;93.30;38.60;;;;;;;-3.16;87.61;96300.31;5073587;28;20194;-62
2020/12/01 09:33:03;;;;;;;139.20;40.50;;;;;;;-3.29;87.52;96295.19;5073254;28;20200;-62
2020/12/01 09:35:30;;;;;;;126.00;39.87;;;;;;;-3.22;89.07;96295.97;5073593;28;20196;-61
2020/12/01 09:37:57;;;;;;;117.30;38.07;;;;;;;-3.31;88.58;96286.94;5073105;28;20220;-62
2020/12/01 09:40:26;;;;;;;144.83;40.30;;;;;;;-3.37;89.47;96280.06;5073303;28;20689;-61
2020/12/01 09:42:57;;;;;;;98.90;36.67;;;;;;;-3.12;88.90;96281.19;5073003;28;20192;-62
2020/12/01 09:45:26;;;;;;;103.17;35.73;;;;;;;-3.15;89.06;96281.56;5073232;28;20238;-62
2020/12/01 09:47:58;;;;;;;90.13;33.40;;;;;;;-3.37;87.67;96274.97;5073000;28;20199;-61
2020/12/01 09:50:28;;;;;;;93.17;34.87;;;;;;;-3.08;87.72;96277.28;5073401;28;20200;-61
2020/12/01 09:53:09;;;;;;;105.10;31.30;;;;;;;-2.96;87.07;96270.69;5073157;28;20193;-62
2020/12/01 09:55:52;;;;;;;95.93;32.40;;;;;;;-3.29;87.36;96275.63;5073103;28;20211;-61
2020/12/01 09:58:44;;;;;;;83.00;33.13;;;;;;;-3.16;88.21;96274.91;5073258;28;20204;-62
2020/12/01 10:09:55;;;;;;;109.47;40.93;;;;;;;-2.96;87.90;96265.63;5072933;28;20570;-62
2020/12/01 10:12:32;;;;;;;118.17;39.80;;;;;;;-2.95;86.56;96251.94;5072578;28;20746;-61
2020/12/01 10:35:20;;;;;;;94.77;38.20;;;;;;;-2.67;82.80;96244.19;5030095;28;20193;-61
2020/12/01 10:37:47;;;;;;;104.53;37.83;;;;;;;-2.62;82.08;96240.09;5029686;28;20237;-61
2020/12/01 10:40:15;;;;;;;101.90;38.17;;;;;;;-2.49;82.03;96234.25;5052150;28;20228;-62
2020/12/01 10:42:42;;;;;;;111.63;42.77;;;;;;;-2.96;82.97;96235.09;5072047;28;20193;-62
2020/12/01 10:45:09;;;;;;;136.37;49.30;;;;;;;-2.86;83.76;96230.44;5072094;28;20232;-62
2020/12/01 10:47:36;;;;;;;145.43;52.27;;;;;;;-2.65;83.39;96221.91;5071881;28;20192;-61
2020/12/01 10:50:04;;;;;;;142.13;47.13;;;;;;;-2.69;81.44;96226.56;5071810;28;20193;-62
2020/12/01 10:52:31;;;;;;;128.37;45.40;;;;;;;-3.04;83.45;96222.56;5071837;28;20228;-62
2020/12/01 10:54:57;;;;;;;120.57;44.40;;;;;;;-3.26;83.69;96223.63;5071812;28;20193;-62
2020/12/01 10:57:25;;;;;;;108.17;42.23;;;;;;;-2.98;84.01;96219.25;5071910;28;20223;-62
2020/12/01 10:59:52;;;;;;;111.03;42.77;;;;;;;-2.82;81.85;96220.66;5071571;28;20228;-62
2020/12/01 11:02:19;;;;;;;113.37;45.40;;;;;;;-2.90;82.88;96213.22;5071710;28;20192;-62
2020/12/01 11:04:46;;;;;;;137.50;46.43;;;;;;;-3.18;84.24;96215.84;5071833;28;20215;-62
2020/12/01 11:07:12;;;;;;;107.37;39.77;;;;;;;-2.93;83.81;96214.38;5071938;28;20200;-62
2020/12/01 11:09:39;;;;;;;91.10;39.60;;;;;;;-2.69;83.08;96197.84;5071316;28;20192;-62
2020/12/01 11:12:06;;;;;;;95.60;39.07;;;;;;;-2.64;83.25;96191.16;5071578;28;20220;-62
2020/12/01 11:14:34;;;;;;;114.23;45.50;;;;;;;-2.23;81.37;96182.59;5071401;28;20742;-62
2020/12/01 11:17:01;;;;;;;110.17;47.17;;;;;;;-2.06;82.54;96183.78;5071205;28;20295;-63
2020/12/01 11:19:28;;;;;;;152.57;61.73;;;;;;;-1.65;81.21;96175.09;5071252;28;20283;-60
2020/12/01 11:21:54;;;;;;;238.77;101.40;;;;;;;-1.47;79.92;96176.00;5071373;28;20285;-62
2020/12/01 11:24:21;;;;;;;169.60;67.63;;;;;;;-1.45;79.27;96168.19;5071279;28;20643;-62
2020/12/01 11:26:48;;;;;;;331.10;124.83;;;;;;;-1.48;78.69;96164.25;5071260;28;20238;-63
2020/12/01 11:29:15;;;;;;;194.33;80.27;;;;;;;-1.16;77.93;96156.69;5071067;28;20640;-62
2020/12/01 11:31:44;;;;;;;228.13;86.57;;;;;;;-1.91;79.92;96148.69;5070945;28;20651;-63
2020/12/01 11:34:12;;;;;;;177.07;71.73;;;;;;;-1.51;80.80;96153.69;5070965;28;20730;-63
2020/12/01 11:36:40;;;;;;;132.70;57.37;;;;;;;-1.45;79.29;96143.47;5070849;28;20920;-63
2020/12/01 11:39:08;;;;;;;144.67;58.07;;;;;;;-1.83;80.39;96140.03;5070634;28;20232;-63
2020/12/01 11:41:35;;;;;;;146.37;61.27;;;;;;;-1.52;80.06;96141.94;5070731;28;20249;-63
2020/12/01 11:44:02;;;;;;;131.63;55.03;;;;;;;-1.37;80.51;96135.59;5070730;28;20191;-63
2020/12/01 11:46:29;;;;;;;145.97;56.17;;;;;;;-1.20;80.31;96125.72;5070663;28;20227;-63
2020/12/01 11:49:01;;;;;;;120.73;49.73;;;;;;;-1.69;81.96;96125.53;5070788;28;20248;-63
2020/12/01 11:51:28;;;;;;;125.33;50.60;;;;;;;-1.93;83.01;96125.19;5070744;28;20736;-63
2020/12/01 11:53:55;;;;;;;113.67;45.83;;;;;;;-2.43;84.58;96124.06;5070805;28;20197;-62
2020/12/01 11:56:23;;;;;;;106.53;45.87;;;;;;;-2.25;84.06;96121.72;5070581;28;20233;-63
2020/12/01 11:58:50;;;;;;;109.37;45.53;;;;;;;-2.14;84.35;96120.31;5070390;28;20283;-62
2020/12/01 12:01:17;;;;;;;97.07;42.50;;;;;;;-1.87;83.22;96119.28;5070548;28;20224;-63
2020/12/01 12:03:44;;;;;;;98.70;41.27;;;;;;;-1.70;81.45;96119.66;5070523;28;20197;-62